createdAt,value
2023-03-30T00:00:45.722Z,509.00
2023-03-30T00:01:45.729Z,501.00
2023-03-30T00:02:45.840Z,502.00
2023-03-30T00:03:45.926Z,505.00
2023-03-30T00:04:45.731Z,504.00
2023-03-30T00:05:45.692Z,504.00
2023-03-30T00:06:45.673Z,502.00
2023-03-30T00:07:45.729Z,506.00
2023-03-30T00:08:45.640Z,508.00
2023-03-30T00:09:45.614Z,506.00
2023-03-30T00:10:45.626Z,514.00
2023-03-30T00:11:45.641Z,508.00
2023-03-30T00:12:45.645Z,510.00
2023-03-30T00:13:45.621Z,503.00
2023-03-30T00:14:45.586Z,511.00
2023-03-30T00:15:45.577Z,512.00
2023-03-30T00:16:45.669Z,507.00
2023-03-30T00:17:45.574Z,510.00
2023-03-30T00:18:45.552Z,509.00
2023-03-30T00:19:45.534Z,509.00
2023-03-30T00:20:45.549Z,504.00
2023-03-30T00:21:45.526Z,506.00
2023-03-30T00:22:45.492Z,508.00
2023-03-30T00:23:45.475Z,502.00
2023-03-30T00:24:45.475Z,504.00
2023-03-30T00:25:45.469Z,501.00
2023-03-30T00:26:45.461Z,501.00
2023-03-30T00:27:45.461Z,500.00
2023-03-30T00:28:45.503Z,502.00
2023-03-30T00:29:45.485Z,517.00
2023-03-30T00:30:45.490Z,509.00
2023-03-30T00:31:45.527Z,511.00
2023-03-30T00:32:45.516Z,517.00
2023-03-30T00:33:47.495Z,512.00
2023-03-30T00:34:45.543Z,515.00
2023-03-30T00:35:45.646Z,513.00
2023-03-30T00:36:45.511Z,512.00
2023-03-30T00:37:45.530Z,518.00
2023-03-30T00:38:45.674Z,515.00
2023-03-30T00:39:45.464Z,513.00
2023-03-30T00:40:45.451Z,509.00
2023-03-30T00:41:45.441Z,512.00
2023-03-30T00:42:45.433Z,510.00
2023-03-30T00:43:45.416Z,507.00
2023-03-30T00:44:45.389Z,506.00
2023-03-30T00:45:45.371Z,510.00
2023-03-30T00:46:45.346Z,511.00
2023-03-30T00:47:45.359Z,508.00
2023-03-30T00:48:45.292Z,505.00
2023-03-30T00:49:45.283Z,513.00
2023-03-30T00:50:45.280Z,508.00
2023-03-30T00:51:45.270Z,506.00
2023-03-30T00:52:45.246Z,509.00
2023-03-30T00:53:45.233Z,504.00
2023-03-30T00:54:45.241Z,506.00
2023-03-30T00:55:45.221Z,506.00
2023-03-30T00:56:45.237Z,507.00
2023-03-30T00:57:45.248Z,511.00
2023-03-30T00:58:45.199Z,507.00
2023-03-30T00:59:45.183Z,505.00
2023-03-30T01:00:45.164Z,503.00
2023-03-30T01:01:45.233Z,511.00
2023-03-30T01:02:45.200Z,508.00
2023-03-30T01:03:45.182Z,506.00
2023-03-30T01:04:45.105Z,509.00
2023-03-30T01:05:45.082Z,503.00
2023-03-30T01:06:45.052Z,508.00
2023-03-30T01:07:45.045Z,507.00
2023-03-30T01:08:45.013Z,506.00
2023-03-30T01:09:45.004Z,511.00
2023-03-30T01:10:45.031Z,509.00
2023-03-30T01:11:44.968Z,511.00
2023-03-30T01:12:44.957Z,501.00
2023-03-30T01:13:44.921Z,512.00
2023-03-30T01:14:44.927Z,506.00
2023-03-30T01:15:44.946Z,509.00
2023-03-30T01:16:44.875Z,504.00
2023-03-30T01:17:44.930Z,505.00
2023-03-30T01:18:44.858Z,511.00
2023-03-30T01:19:44.837Z,507.00
2023-03-30T01:20:44.819Z,508.00
2023-03-30T01:21:44.803Z,509.00
2023-03-30T01:22:44.784Z,507.00
2023-03-30T01:23:44.760Z,508.00
2023-03-30T01:24:44.746Z,509.00
2023-03-30T01:25:44.730Z,510.00
2023-03-30T01:26:44.727Z,511.00
2023-03-30T01:27:44.706Z,513.00
2023-03-30T01:28:44.686Z,506.00
2023-03-30T01:29:44.702Z,512.00
2023-03-30T01:30:44.671Z,511.00
2023-03-30T01:31:44.698Z,507.00
2023-03-30T01:32:44.697Z,512.00
2023-03-30T01:33:44.601Z,512.00
2023-03-30T01:34:44.587Z,507.00
2023-03-30T01:35:44.635Z,507.00
2023-03-30T01:36:44.536Z,501.00
2023-03-30T01:37:44.515Z,510.00
2023-03-30T01:38:44.500Z,505.00
2023-03-30T01:39:44.475Z,508.00
2023-03-30T01:40:44.448Z,502.00
2023-03-30T01:41:44.414Z,506.00
2023-03-30T01:42:44.459Z,502.00
2023-03-30T01:43:44.378Z,508.00
2023-03-30T01:44:44.379Z,507.00
2023-03-30T01:45:44.568Z,506.00
2023-03-30T01:46:44.366Z,504.00
2023-03-30T01:47:44.364Z,505.00
2023-03-30T01:48:44.318Z,505.00
2023-03-30T01:49:44.309Z,505.00
2023-03-30T01:50:44.292Z,508.00
2023-03-30T01:51:44.307Z,511.00
2023-03-30T01:52:44.306Z,509.00
2023-03-30T01:53:44.320Z,506.00
2023-03-30T01:54:44.338Z,505.00
2023-03-30T01:55:44.373Z,507.00
2023-03-30T01:56:44.381Z,506.00
2023-03-30T01:57:44.328Z,508.00
2023-03-30T01:58:44.325Z,504.00
2023-03-30T01:59:44.329Z,509.00
2023-03-30T02:00:44.310Z,503.00
2023-03-30T02:01:44.336Z,506.00
2023-03-30T02:02:44.396Z,512.00
2023-03-30T02:03:44.416Z,507.00
2023-03-30T02:04:44.342Z,507.00
2023-03-30T02:05:44.468Z,511.00
2023-03-30T02:06:44.314Z,503.00
2023-03-30T02:07:44.324Z,501.00
2023-03-30T02:08:44.305Z,505.00
2023-03-30T02:09:44.306Z,510.00
2023-03-30T02:10:44.328Z,503.00
2023-03-30T02:11:44.304Z,510.00
2023-03-30T02:12:44.310Z,507.00
2023-03-30T02:13:44.323Z,500.00
2023-03-30T02:14:44.297Z,505.00
2023-03-30T02:15:44.273Z,510.00
2023-03-30T02:16:44.288Z,506.00
2023-03-30T02:17:44.255Z,511.00
2023-03-30T02:18:44.237Z,505.00
2023-03-30T02:19:44.194Z,508.00
2023-03-30T02:20:44.175Z,505.00
2023-03-30T02:21:44.175Z,502.00
2023-03-30T02:22:44.169Z,508.00
2023-03-30T02:23:44.167Z,505.00
2023-03-30T02:24:44.155Z,505.00
2023-03-30T02:25:44.152Z,500.00
2023-03-30T02:26:44.154Z,502.00
2023-03-30T02:27:44.159Z,503.00
2023-03-30T02:28:44.146Z,503.00
2023-03-30T02:29:44.127Z,502.00
2023-03-30T02:30:44.125Z,508.00
2023-03-30T02:31:44.183Z,506.00
2023-03-30T02:32:44.245Z,509.00
2023-03-30T02:33:44.145Z,507.00
2023-03-30T02:34:44.151Z,505.00
2023-03-30T02:35:44.150Z,512.00
2023-03-30T02:36:44.127Z,511.00
2023-03-30T02:37:44.110Z,504.00
2023-03-30T02:38:44.092Z,501.00
2023-03-30T02:39:44.100Z,510.00
2023-03-30T02:40:44.108Z,502.00
2023-03-30T02:41:44.119Z,508.00
2023-03-30T02:42:44.119Z,510.00
2023-03-30T02:43:44.113Z,512.00
2023-03-30T02:44:44.128Z,511.00
2023-03-30T02:45:44.184Z,508.00
2023-03-30T02:46:44.113Z,509.00
2023-03-30T02:47:44.140Z,506.00
2023-03-30T02:48:44.141Z,508.00
2023-03-30T02:49:44.147Z,503.00
2023-03-30T02:50:44.153Z,511.00
2023-03-30T02:51:44.162Z,509.00
2023-03-30T02:52:44.122Z,509.00
2023-03-30T02:53:44.100Z,509.00
2023-03-30T02:54:44.068Z,504.00
2023-03-30T02:55:44.559Z,509.00
2023-03-30T02:56:44.022Z,507.00
2023-03-30T02:57:43.967Z,511.00
2023-03-30T02:58:43.935Z,505.00
2023-03-30T02:59:43.917Z,504.00
2023-03-30T03:00:43.883Z,505.00
2023-03-30T03:01:43.864Z,510.00
2023-03-30T03:02:43.886Z,509.00
2023-03-30T03:03:43.861Z,502.00
2023-03-30T03:04:43.814Z,506.00
2023-03-30T03:05:43.723Z,502.00
2023-03-30T03:06:43.674Z,504.00
2023-03-30T03:07:43.668Z,507.00
2023-03-30T03:08:43.650Z,508.00
2023-03-30T03:09:43.636Z,504.00
2023-03-30T03:10:43.647Z,504.00
2023-03-30T03:11:43.608Z,501.00
2023-03-30T03:12:43.609Z,503.00
2023-03-30T03:13:43.591Z,510.00
2023-03-30T03:14:43.594Z,510.00
2023-03-30T03:15:43.599Z,509.00
2023-03-30T03:16:43.593Z,508.00
2023-03-30T03:17:43.579Z,504.00
2023-03-30T03:18:43.562Z,509.00
2023-03-30T03:19:43.540Z,507.00
2023-03-30T03:20:43.540Z,501.00
2023-03-30T03:21:43.547Z,507.00
2023-03-30T03:22:43.543Z,505.00
2023-03-30T03:23:43.534Z,507.00
2023-03-30T03:24:43.534Z,508.00
2023-03-30T03:25:43.511Z,502.00
2023-03-30T03:26:43.496Z,509.00
2023-03-30T03:27:43.459Z,506.00
2023-03-30T03:28:43.460Z,509.00
2023-03-30T03:29:43.463Z,509.00
2023-03-30T03:30:43.500Z,509.00
2023-03-30T03:31:43.556Z,506.00
2023-03-30T03:32:43.468Z,506.00
2023-03-30T03:33:43.450Z,508.00
2023-03-30T03:34:43.473Z,508.00
2023-03-30T03:35:43.533Z,515.00
2023-03-30T03:36:43.549Z,511.00
2023-03-30T03:37:43.589Z,507.00
2023-03-30T03:38:43.609Z,508.00
2023-03-30T03:39:43.633Z,503.00
2023-03-30T03:40:43.678Z,504.00
2023-03-30T03:41:43.703Z,508.00
2023-03-30T03:42:43.745Z,510.00
2023-03-30T03:43:43.766Z,512.00
2023-03-30T03:44:43.822Z,509.00
2023-03-30T03:45:43.904Z,507.00
2023-03-30T03:46:43.961Z,509.00
2023-03-30T03:47:43.994Z,515.00
2023-03-30T03:48:43.999Z,506.00
2023-03-30T03:49:44.027Z,508.00
2023-03-30T03:50:44.098Z,507.00
2023-03-30T03:51:44.080Z,509.00
2023-03-30T03:52:44.116Z,506.00
2023-03-30T03:53:44.166Z,509.00
2023-03-30T03:54:44.183Z,503.00
2023-03-30T03:55:44.213Z,508.00
2023-03-30T03:56:44.299Z,510.00
2023-03-30T03:57:44.276Z,504.00
2023-03-30T03:58:44.320Z,504.00
2023-03-30T03:59:44.364Z,507.00
2023-03-30T04:00:44.485Z,510.00
2023-03-30T04:01:44.498Z,517.00
2023-03-30T04:02:44.593Z,510.00
2023-03-30T04:03:44.516Z,512.00
2023-03-30T04:04:44.558Z,511.00
2023-03-30T04:05:44.552Z,506.00
2023-03-30T04:06:44.569Z,503.00
2023-03-30T04:07:44.597Z,512.00
2023-03-30T04:08:44.610Z,506.00
2023-03-30T04:09:44.615Z,509.00
2023-03-30T04:10:44.622Z,508.00
2023-03-30T04:11:44.647Z,512.00
2023-03-30T04:12:44.663Z,510.00
2023-03-30T04:13:44.688Z,509.00
2023-03-30T04:14:44.711Z,509.00
2023-03-30T04:15:44.759Z,505.00
2023-03-30T04:16:44.873Z,513.00
2023-03-30T04:17:47.305Z,509.00
2023-03-30T04:18:45.040Z,510.00
2023-03-30T04:19:45.077Z,503.00
2023-03-30T04:20:45.083Z,512.00
2023-03-30T04:21:45.602Z,511.00
2023-03-30T04:22:45.131Z,509.00
2023-03-30T04:23:45.144Z,507.00
2023-03-30T04:24:45.183Z,504.00
2023-03-30T04:25:45.213Z,508.00
2023-03-30T04:26:45.223Z,507.00
2023-03-30T04:27:45.218Z,503.00
2023-03-30T04:28:45.242Z,505.00
2023-03-30T04:29:45.257Z,506.00
2023-03-30T04:30:45.286Z,511.00
2023-03-30T04:31:45.360Z,510.00
2023-03-30T04:32:45.334Z,505.00
2023-03-30T04:33:47.015Z,511.00
2023-03-30T04:34:45.288Z,511.00
2023-03-30T04:35:45.317Z,505.00
2023-03-30T04:36:45.254Z,514.00
2023-03-30T04:37:45.597Z,512.00
2023-03-30T04:38:45.168Z,505.00
2023-03-30T04:39:45.151Z,512.00
2023-03-30T04:40:45.127Z,508.00
2023-03-30T04:41:45.094Z,515.00
2023-03-30T04:42:45.065Z,512.00
2023-03-30T04:43:45.050Z,512.00
2023-03-30T04:44:45.003Z,505.00
2023-03-30T04:45:45.055Z,514.00
2023-03-30T04:46:44.955Z,509.00
2023-03-30T04:47:44.976Z,509.00
2023-03-30T04:48:44.906Z,510.00
2023-03-30T04:49:44.879Z,510.00
2023-03-30T04:50:44.861Z,507.00
2023-03-30T04:51:44.861Z,509.00
2023-03-30T04:52:44.810Z,510.00
2023-03-30T04:53:44.791Z,506.00
2023-03-30T04:54:44.741Z,509.00
2023-03-30T04:55:44.738Z,514.00
2023-03-30T04:56:44.695Z,507.00
2023-03-30T04:57:44.657Z,512.00
2023-03-30T04:58:44.645Z,508.00
2023-03-30T04:59:44.590Z,506.00
2023-03-30T05:00:44.579Z,505.00
2023-03-30T05:01:44.548Z,507.00
2023-03-30T05:02:44.589Z,512.00
2023-03-30T05:03:44.506Z,504.00
2023-03-30T05:04:44.459Z,509.00
2023-03-30T05:05:44.422Z,511.00
2023-03-30T05:06:44.397Z,507.00
2023-03-30T05:07:44.374Z,502.00
2023-03-30T05:08:44.346Z,508.00
2023-03-30T05:09:44.314Z,504.00
2023-03-30T05:10:44.290Z,507.00
2023-03-30T05:11:44.271Z,505.00
2023-03-30T05:12:44.310Z,506.00
2023-03-30T05:13:44.314Z,500.00
2023-03-30T05:14:44.287Z,504.00
2023-03-30T05:15:44.289Z,509.00
2023-03-30T05:16:44.394Z,506.00
2023-03-30T05:17:44.376Z,507.00
2023-03-30T05:18:44.382Z,510.00
2023-03-30T05:19:44.394Z,504.00
2023-03-30T05:20:44.408Z,507.00
2023-03-30T05:21:44.429Z,513.00
2023-03-30T05:22:44.458Z,519.00
2023-03-30T05:23:44.496Z,527.00
2023-03-30T05:24:44.520Z,522.00
2023-03-30T05:25:44.561Z,534.00
2023-03-30T05:26:44.596Z,539.00
2023-03-30T05:27:44.625Z,548.00
2023-03-30T05:28:44.664Z,581.00
2023-03-30T05:29:44.692Z,605.00
2023-03-30T05:30:44.712Z,619.00
2023-03-30T05:31:44.847Z,633.00
2023-03-30T05:32:44.791Z,682.00
2023-03-30T05:33:44.749Z,740.00
2023-03-30T05:34:44.756Z,766.00
2023-03-30T05:35:44.727Z,846.00
2023-03-30T05:36:44.741Z,904.00
2023-03-30T05:37:44.732Z,919.00
2023-03-30T05:38:44.696Z,876.00
2023-03-30T05:39:44.683Z,656.00
2023-03-30T05:40:44.701Z,617.00
2023-03-30T05:41:44.698Z,581.00
2023-03-30T05:42:44.690Z,559.00
2023-03-30T05:43:44.697Z,555.00
2023-03-30T05:44:44.727Z,530.00
2023-03-30T05:45:44.771Z,500.00
2023-03-30T05:46:44.943Z,510.00
2023-03-30T05:47:44.810Z,502.00
2023-03-30T05:48:44.812Z,497.00
2023-03-30T05:49:44.840Z,512.00
2023-03-30T05:50:44.866Z,520.00
2023-03-30T05:51:44.860Z,527.00
2023-03-30T05:52:44.906Z,554.00
2023-03-30T05:53:45.612Z,554.00
2023-03-30T05:54:44.966Z,548.00
2023-03-30T05:55:44.967Z,546.00
2023-03-30T05:56:44.984Z,588.00
2023-03-30T05:57:44.948Z,609.00
2023-03-30T05:58:44.956Z,622.00
2023-03-30T05:59:45.009Z,637.00
2023-03-30T06:00:45.023Z,653.00
2023-03-30T06:01:45.036Z,676.00
2023-03-30T06:02:45.164Z,715.00
2023-03-30T06:03:45.148Z,747.00
2023-03-30T06:04:45.026Z,787.00
2023-03-30T06:05:45.049Z,834.00
2023-03-30T06:06:45.023Z,855.00
2023-03-30T06:07:44.966Z,901.00
2023-03-30T06:08:44.962Z,933.00
2023-03-30T06:09:44.961Z,972.00
2023-03-30T06:10:44.970Z,1014.00
2023-03-30T06:11:44.972Z,1075.00
2023-03-30T06:12:44.958Z,813.00
2023-03-30T06:13:44.976Z,636.00
2023-03-30T06:14:44.960Z,593.00
2023-03-30T06:15:44.993Z,560.00
2023-03-30T06:16:45.058Z,520.00
2023-03-30T06:17:45.072Z,496.00
2023-03-30T06:18:45.105Z,506.00
2023-03-30T06:19:45.155Z,510.00
2023-03-30T06:20:45.183Z,509.00
2023-03-30T06:21:45.209Z,523.00
2023-03-30T06:22:45.272Z,544.00
2023-03-30T06:23:45.308Z,543.00
2023-03-30T06:24:45.348Z,547.00
2023-03-30T06:25:45.369Z,551.00
2023-03-30T06:26:45.362Z,565.00
2023-03-30T06:27:46.118Z,561.00
2023-03-30T06:28:45.330Z,593.00
2023-03-30T06:29:45.364Z,605.00
2023-03-30T06:30:45.389Z,617.00
2023-03-30T06:31:45.423Z,627.00
2023-03-30T06:32:45.469Z,640.00
2023-03-30T06:33:45.406Z,642.00
2023-03-30T06:34:45.386Z,646.00
2023-03-30T06:35:45.373Z,661.00
2023-03-30T06:36:46.068Z,689.00
2023-03-30T06:37:45.349Z,725.00
2023-03-30T06:38:45.291Z,760.00
2023-03-30T06:39:45.241Z,789.00
2023-03-30T06:40:45.240Z,820.00
2023-03-30T06:41:45.239Z,839.00
2023-03-30T06:42:45.259Z,876.00
2023-03-30T06:43:46.123Z,922.00
2023-03-30T06:44:45.589Z,940.00
2023-03-30T06:45:45.341Z,1006.00
2023-03-30T06:46:45.330Z,1018.00
2023-03-30T06:47:45.362Z,1065.00
2023-03-30T06:48:45.325Z,1106.00
2023-03-30T06:49:45.293Z,1119.00
2023-03-30T06:50:45.296Z,1163.00
2023-03-30T06:51:45.269Z,1192.00
2023-03-30T06:52:45.248Z,1221.00
2023-03-30T06:53:45.224Z,1243.00
2023-03-30T06:54:45.230Z,1274.00
2023-03-30T06:55:45.194Z,1300.00
2023-03-30T06:56:45.201Z,1439.00
2023-03-30T06:57:45.139Z,1580.00
2023-03-30T06:58:45.122Z,1680.00
2023-03-30T06:59:45.085Z,1657.00
2023-03-30T07:00:45.067Z,1793.00
2023-03-30T07:01:45.104Z,1797.00
2023-03-30T07:02:45.052Z,1813.00
2023-03-30T07:03:44.940Z,1837.00
2023-03-30T07:04:44.939Z,1865.00
2023-03-30T07:05:44.890Z,1852.00
2023-03-30T07:06:44.865Z,1934.00
2023-03-30T07:07:44.822Z,1947.00
2023-03-30T07:08:45.634Z,1976.00
2023-03-30T07:09:44.720Z,1975.00
2023-03-30T07:10:44.683Z,1977.00
2023-03-30T07:11:44.651Z,2014.00
2023-03-30T07:12:44.596Z,2005.00
2023-03-30T07:13:44.569Z,2037.00
2023-03-30T07:14:45.132Z,2052.00
2023-03-30T07:15:44.484Z,2075.00
2023-03-30T07:16:44.426Z,2106.00
2023-03-30T07:17:44.367Z,2204.00
2023-03-30T07:18:44.287Z,2185.00
2023-03-30T07:19:44.227Z,2189.00
2023-03-30T07:20:44.190Z,2149.00
2023-03-30T07:21:44.172Z,2142.00
2023-03-30T07:22:44.135Z,2161.00
2023-03-30T07:23:44.081Z,2143.00
2023-03-30T07:24:44.019Z,2138.00
2023-03-30T07:25:44.106Z,2145.00
2023-03-30T07:26:44.737Z,2137.00
2023-03-30T07:27:43.857Z,2144.00
2023-03-30T07:28:44.640Z,2126.00
2023-03-30T07:29:43.748Z,2112.00
2023-03-30T07:30:43.722Z,2104.00
2023-03-30T07:31:44.216Z,2101.00
2023-03-30T07:32:43.655Z,2101.00
2023-03-30T07:33:43.569Z,2093.00
2023-03-30T07:34:43.522Z,2082.00
2023-03-30T07:35:43.537Z,2088.00
2023-03-30T07:36:43.488Z,2095.00
2023-03-30T07:37:43.505Z,2101.00
2023-03-30T07:38:43.518Z,2090.00
2023-03-30T07:39:43.539Z,2078.00
2023-03-30T07:40:43.569Z,2092.00
2023-03-30T07:41:43.583Z,2088.00
2023-03-30T07:42:43.605Z,2084.00
2023-03-30T07:43:43.643Z,2085.00
2023-03-30T07:44:43.614Z,2078.00
2023-03-30T07:45:43.617Z,2079.00
2023-03-30T07:46:43.631Z,2062.00
2023-03-30T07:47:43.670Z,2065.00
2023-03-30T07:48:43.676Z,2065.00
2023-03-30T07:49:43.666Z,2063.00
2023-03-30T07:50:43.696Z,2056.00
2023-03-30T07:51:43.679Z,2047.00
2023-03-30T07:52:43.644Z,2056.00
2023-03-30T07:53:43.622Z,2052.00
2023-03-30T07:54:43.627Z,2034.00
2023-03-30T07:55:44.158Z,2030.00
2023-03-30T07:56:43.661Z,2036.00
2023-03-30T07:57:43.573Z,2018.00
2023-03-30T07:58:43.533Z,2016.00
2023-03-30T07:59:43.509Z,2017.00
2023-03-30T08:00:43.474Z,2019.00
2023-03-30T08:01:43.498Z,2008.00
2023-03-30T08:02:43.574Z,2000.00
2023-03-30T08:03:43.694Z,1999.00
2023-03-30T08:04:43.889Z,1995.00
2023-03-30T08:05:43.620Z,2001.00
2023-03-30T08:06:43.600Z,1979.00
2023-03-30T08:07:43.605Z,1983.00
2023-03-30T08:08:43.595Z,1960.00
2023-03-30T08:09:43.489Z,1958.00
2023-03-30T08:10:43.498Z,1963.00
2023-03-30T08:11:43.536Z,1942.00
2023-03-30T08:12:43.507Z,1950.00
2023-03-30T08:13:43.545Z,1947.00
2023-03-30T08:14:43.431Z,1947.00
2023-03-30T08:15:43.455Z,1922.00
2023-03-30T08:16:43.369Z,1895.00
2023-03-30T08:17:43.435Z,1892.00
2023-03-30T08:18:43.455Z,1874.00
2023-03-30T08:19:43.521Z,1900.00
2023-03-30T08:20:43.578Z,1916.00
2023-03-30T08:21:43.593Z,1933.00
2023-03-30T08:22:43.615Z,1937.00
2023-03-30T08:23:44.169Z,1930.00
2023-03-30T08:24:43.665Z,1966.00
2023-03-30T08:25:45.248Z,1963.00
2023-03-30T08:26:43.681Z,1907.00
2023-03-30T08:27:43.596Z,1931.00
2023-03-30T08:28:43.539Z,1913.00
2023-03-30T08:29:43.497Z,1910.00
2023-03-30T08:30:43.477Z,1925.00
2023-03-30T08:31:43.466Z,1908.00
2023-03-30T08:32:43.407Z,1911.00
2023-03-30T08:33:43.325Z,1929.00
2023-03-30T08:34:43.274Z,1941.00
2023-03-30T08:35:44.213Z,1961.00
2023-03-30T08:36:43.175Z,1958.00
2023-03-30T08:37:43.122Z,1959.00
2023-03-30T08:38:43.073Z,1953.00
2023-03-30T08:39:43.027Z,1939.00
2023-03-30T08:40:44.582Z,1935.00
2023-03-30T08:41:42.962Z,1934.00
2023-03-30T08:42:42.921Z,1928.00
2023-03-30T08:43:42.865Z,1935.00
2023-03-30T08:44:42.814Z,1931.00
2023-03-30T08:45:43.222Z,1916.00
2023-03-30T08:46:42.732Z,1915.00
2023-03-30T08:47:42.704Z,1917.00
2023-03-30T08:48:42.644Z,1913.00
2023-03-30T08:49:42.581Z,1909.00
2023-03-30T08:50:42.545Z,1913.00
2023-03-30T08:51:42.487Z,1907.00
2023-03-30T08:52:42.440Z,1910.00
2023-03-30T08:53:42.394Z,1886.00
2023-03-30T08:54:42.351Z,1883.00
2023-03-30T08:55:42.309Z,1895.00
2023-03-30T08:56:42.307Z,1893.00
2023-03-30T08:57:42.213Z,1879.00
2023-03-30T08:58:42.176Z,1879.00
2023-03-30T08:59:42.132Z,1878.00
2023-03-30T09:00:42.104Z,1880.00
2023-03-30T09:01:42.063Z,1868.00
2023-03-30T09:02:42.098Z,1860.00
2023-03-30T09:03:41.967Z,1862.00
2023-03-30T09:04:41.971Z,1854.00
2023-03-30T09:05:41.885Z,1854.00
2023-03-30T09:06:41.825Z,1851.00
2023-03-30T09:07:41.784Z,1848.00
2023-03-30T09:08:41.741Z,1840.00
2023-03-30T09:09:41.694Z,1846.00
2023-03-30T09:10:41.658Z,1832.00
2023-03-30T09:11:41.607Z,1840.00
2023-03-30T09:12:41.840Z,1824.00
2023-03-30T09:13:41.526Z,1829.00
2023-03-30T09:14:41.457Z,1832.00
2023-03-30T09:15:42.175Z,1825.00
2023-03-30T09:16:41.411Z,1813.00
2023-03-30T09:17:41.317Z,1818.00
2023-03-30T09:18:41.280Z,1801.00
2023-03-30T09:19:41.233Z,1800.00
2023-03-30T09:20:41.364Z,1806.00
2023-03-30T09:21:41.163Z,1797.00
2023-03-30T09:22:41.119Z,1801.00
2023-03-30T09:23:41.063Z,1791.00
2023-03-30T09:24:41.068Z,1781.00
2023-03-30T09:25:40.987Z,1784.00
2023-03-30T09:26:40.956Z,1792.00
2023-03-30T09:27:40.918Z,1772.00
2023-03-30T09:28:40.844Z,1779.00
2023-03-30T09:29:40.827Z,1775.00
2023-03-30T09:30:40.807Z,1763.00
2023-03-30T09:31:40.858Z,1768.00
2023-03-30T09:32:40.997Z,1770.00
2023-03-30T09:33:40.677Z,1761.00
2023-03-30T09:34:40.655Z,1748.00
2023-03-30T09:35:40.639Z,1761.00
2023-03-30T09:36:40.688Z,1755.00
2023-03-30T09:37:40.529Z,1752.00
2023-03-30T09:38:40.482Z,1741.00
2023-03-30T09:39:42.237Z,1738.00
2023-03-30T09:40:40.413Z,1739.00
2023-03-30T09:41:40.379Z,1728.00
2023-03-30T09:42:40.341Z,1727.00
2023-03-30T09:43:40.296Z,1725.00
2023-03-30T09:44:40.259Z,1718.00
2023-03-30T09:45:40.308Z,1716.00
2023-03-30T09:46:40.331Z,1726.00
2023-03-30T09:47:40.262Z,1713.00
2023-03-30T09:48:41.704Z,1712.00
2023-03-30T09:49:40.135Z,1704.00
2023-03-30T09:50:40.098Z,1701.00
2023-03-30T09:51:40.059Z,1695.00
2023-03-30T09:52:40.016Z,1710.00
2023-03-30T09:53:39.983Z,1693.00
2023-03-30T09:54:39.991Z,1688.00
2023-03-30T09:55:40.048Z,1679.00
2023-03-30T09:56:42.196Z,1683.00
2023-03-30T09:57:40.069Z,1678.00
2023-03-30T09:58:40.052Z,1682.00
2023-03-30T09:59:40.024Z,1675.00
2023-03-30T10:00:40.069Z,1675.00
2023-03-30T10:01:40.071Z,1664.00
2023-03-30T10:02:40.136Z,1668.00
2023-03-30T10:03:40.250Z,1658.00
2023-03-30T10:04:40.229Z,1661.00
2023-03-30T10:05:40.213Z,1656.00
2023-03-30T10:06:40.143Z,1644.00
2023-03-30T10:07:40.116Z,1637.00
2023-03-30T10:08:40.099Z,1639.00
2023-03-30T10:09:40.078Z,1616.00
2023-03-30T10:10:40.070Z,1603.00
2023-03-30T10:11:40.099Z,1610.00
2023-03-30T10:12:40.037Z,1592.00
2023-03-30T10:13:40.005Z,1603.00
2023-03-30T10:14:40.005Z,1582.00
2023-03-30T10:15:40.883Z,1620.00
2023-03-30T10:16:41.230Z,1622.00
2023-03-30T10:17:40.271Z,1625.00
2023-03-30T10:18:40.217Z,1632.00
2023-03-30T10:19:42.340Z,1642.00
2023-03-30T10:20:41.180Z,1623.00
2023-03-30T10:21:40.158Z,1624.00
2023-03-30T10:22:40.059Z,1625.00
2023-03-30T10:23:40.123Z,1588.00
2023-03-30T10:24:41.459Z,1556.00
2023-03-30T10:25:39.888Z,1488.00
2023-03-30T10:26:39.830Z,1517.00
2023-03-30T10:27:39.762Z,1489.00
2023-03-30T10:28:39.697Z,1470.00
2023-03-30T10:29:39.637Z,1436.00
2023-03-30T10:30:39.578Z,1403.00
2023-03-30T10:31:39.575Z,1380.00
2023-03-30T10:32:39.480Z,1365.00
2023-03-30T10:33:39.403Z,1350.00
2023-03-30T10:34:39.340Z,1318.00
2023-03-30T10:35:40.213Z,1322.00
2023-03-30T10:36:39.703Z,1308.00
2023-03-30T10:37:39.172Z,1323.00
2023-03-30T10:38:39.709Z,1268.00
2023-03-30T10:39:39.042Z,1312.00
2023-03-30T10:40:38.988Z,1286.00
2023-03-30T10:41:38.944Z,1275.00
2023-03-30T10:42:38.887Z,1249.00
2023-03-30T10:43:38.818Z,1226.00
2023-03-30T10:44:38.752Z,1281.00
2023-03-30T10:45:38.697Z,1228.00
2023-03-30T10:46:38.648Z,1180.00
2023-03-30T10:47:38.606Z,1180.00
2023-03-30T10:48:38.527Z,1197.00
2023-03-30T10:49:38.481Z,1206.00
2023-03-30T10:50:38.416Z,1254.00
2023-03-30T10:51:38.361Z,1282.00
2023-03-30T10:52:48.508Z,1313.00
2023-03-30T10:53:39.240Z,1314.00
2023-03-30T10:54:38.172Z,1320.00
2023-03-30T10:55:38.118Z,1337.00
2023-03-30T10:56:38.086Z,1360.00
2023-03-30T10:57:38.010Z,1415.00
2023-03-30T10:58:37.908Z,1444.00
2023-03-30T10:59:37.879Z,1466.00
2023-03-30T11:00:37.823Z,1477.00
2023-03-30T11:01:37.781Z,1493.00
2023-03-30T11:02:37.832Z,1518.00
2023-03-30T11:03:37.841Z,1553.00
2023-03-30T11:04:37.769Z,1565.00
2023-03-30T11:05:37.758Z,1565.00
2023-03-30T11:06:37.756Z,1591.00
2023-03-30T11:07:37.745Z,1571.00
2023-03-30T11:08:37.720Z,1605.00
2023-03-30T11:09:37.730Z,1634.00
2023-03-30T11:10:37.709Z,1650.00
2023-03-30T11:11:37.711Z,1629.00
2023-03-30T11:12:37.659Z,1617.00
2023-03-30T11:13:37.636Z,1625.00
2023-03-30T11:14:37.597Z,1595.00
2023-03-30T11:15:37.550Z,1609.00
2023-03-30T11:16:37.508Z,1609.00
2023-03-30T11:17:37.502Z,1614.00
2023-03-30T11:18:37.418Z,1628.00
2023-03-30T11:19:38.146Z,1615.00
2023-03-30T11:20:37.310Z,1600.00
2023-03-30T11:21:37.265Z,1596.00
2023-03-30T11:22:37.219Z,1603.00
2023-03-30T11:23:37.171Z,1578.00
2023-03-30T11:24:37.151Z,1572.00
2023-03-30T11:25:37.108Z,1602.00
2023-03-30T11:26:37.039Z,1590.00
2023-03-30T11:27:37.018Z,1543.00
2023-03-30T11:28:36.965Z,1552.00
2023-03-30T11:29:37.000Z,1575.00
2023-03-30T11:30:36.902Z,1542.00
2023-03-30T11:31:36.866Z,1565.00
2023-03-30T11:32:36.844Z,1557.00
2023-03-30T11:33:36.818Z,1555.00
2023-03-30T11:34:36.783Z,1542.00
2023-03-30T11:35:36.819Z,1547.00
2023-03-30T11:36:36.726Z,1546.00
2023-03-30T11:37:36.692Z,1539.00
2023-03-30T11:38:36.663Z,1536.00
2023-03-30T11:39:36.637Z,1517.00
2023-03-30T11:40:36.617Z,1534.00
2023-03-30T11:41:36.596Z,1535.00
2023-03-30T11:42:36.580Z,1534.00
2023-03-30T11:43:36.547Z,1532.00
2023-03-30T11:44:36.528Z,1516.00
2023-03-30T11:45:36.519Z,1507.00
2023-03-30T11:46:36.488Z,1522.00
2023-03-30T11:47:36.472Z,1509.00
2023-03-30T11:48:36.445Z,1515.00
2023-03-30T11:49:36.434Z,1534.00
2023-03-30T11:50:36.435Z,1500.00
2023-03-30T11:51:36.406Z,1499.00
2023-03-30T11:52:36.394Z,1510.00
2023-03-30T11:53:36.383Z,1514.00
2023-03-30T11:54:36.383Z,1517.00
2023-03-30T11:55:36.373Z,1524.00
2023-03-30T11:56:36.374Z,1483.00
2023-03-30T11:57:36.379Z,1522.00
2023-03-30T11:58:36.388Z,1536.00
2023-03-30T11:59:36.376Z,1509.00
2023-03-30T12:00:36.383Z,1530.00
2023-03-30T12:01:36.380Z,1522.00
2023-03-30T12:02:36.486Z,1525.00
2023-03-30T12:03:36.526Z,1523.00
2023-03-30T12:04:38.362Z,1533.00
2023-03-30T12:05:36.441Z,1527.00
2023-03-30T12:06:36.442Z,1516.00
2023-03-30T12:07:36.465Z,1520.00
2023-03-30T12:08:36.494Z,1528.00
2023-03-30T12:09:36.503Z,1528.00
2023-03-30T12:10:36.517Z,1525.00
2023-03-30T12:11:36.564Z,1505.00
2023-03-30T12:12:36.544Z,1523.00
2023-03-30T12:13:50.140Z,1519.00
2023-03-30T12:14:37.529Z,1520.00
2023-03-30T12:15:36.490Z,1522.00
2023-03-30T12:16:36.479Z,1524.00
2023-03-30T12:17:36.429Z,1525.00
2023-03-30T12:18:36.355Z,1520.00